sensor_id;sensor_type;location;lat;lon;timestamp;temperature;humidity
23116;DHT22;11727;52.134;5.052;2023-08-07T00:01:46;13.70;99.90
23116;DHT22;11727;52.134;5.052;2023-08-07T00:04:11;13.60;99.90
23116;DHT22;11727;52.134;5.052;2023-08-07T00:06:37;13.70;99.90
23116;DHT22;11727;52.134;5.052;2023-08-07T00:09:03;13.70;99.90
23116;DHT22;11727;52.134;5.052;2023-08-07T00:11:28;13.70;99.90
23116;DHT22;11727;52.134;5.052;2023-08-07T00:13:54;13.70;99.90
23116;DHT22;11727;52.134;5.052;2023-08-07T00:16:20;13.70;99.90
23116;DHT22;11727;52.134;5.052;2023-08-07T00:18:45;13.60;99.90
23116;DHT22;11727;52.134;5.052;2023-08-07T00:21:12;13.60;99.90
23116;DHT22;11727;52.134;5.052;2023-08-07T00:23:37;13.60;99.90
23116;DHT22;11727;52.134;5.052;2023-08-07T00:26:03;13.60;99.90
23116;DHT22;11727;52.134;5.052;2023-08-07T00:28:28;13.70;99.90
23116;DHT22;11727;52.134;5.052;2023-08-07T00:30:55;13.60;99.90
23116;DHT22;11727;52.134;5.052;2023-08-07T00:33:20;13.60;99.90
23116;DHT22;11727;52.134;5.052;2023-08-07T00:35:46;13.60;99.90
23116;DHT22;11727;52.134;5.052;2023-08-07T00:38:12;13.60;99.90
23116;DHT22;11727;52.134;5.052;2023-08-07T00:40:41;13.60;99.90
23116;DHT22;11727;52.134;5.052;2023-08-07T00:43:06;13.60;99.90
23116;DHT22;11727;52.134;5.052;2023-08-07T00:45:36;13.60;99.90
23116;DHT22;11727;52.134;5.052;2023-08-07T00:48:04;13.60;99.90
23116;DHT22;11727;52.134;5.052;2023-08-07T00:50:29;13.60;99.90
23116;DHT22;11727;52.134;5.052;2023-08-07T00:52:55;13.50;99.90
23116;DHT22;11727;52.134;5.052;2023-08-07T00:55:21;13.50;99.90
23116;DHT22;11727;52.134;5.052;2023-08-07T00:57:47;13.50;99.90
23116;DHT22;11727;52.134;5.052;2023-08-07T01:00:14;13.50;99.90
23116;DHT22;11727;52.134;5.052;2023-08-07T01:02:41;13.50;99.90
23116;DHT22;11727;52.134;5.052;2023-08-07T01:05:07;13.50;99.90
23116;DHT22;11727;52.134;5.052;2023-08-07T01:07:33;13.50;99.90
23116;DHT22;11727;52.134;5.052;2023-08-07T01:09:58;13.50;99.90
23116;DHT22;11727;52.134;5.052;2023-08-07T01:12:30;13.50;99.90
23116;DHT22;11727;52.134;5.052;2023-08-07T01:15:14;13.60;99.90
23116;DHT22;11727;52.134;5.052;2023-08-07T01:17:42;13.60;99.90
23116;DHT22;11727;52.134;5.052;2023-08-07T01:20:09;13.60;99.90
23116;DHT22;11727;52.134;5.052;2023-08-07T01:22:35;13.60;99.90
23116;DHT22;11727;52.134;5.052;2023-08-07T01:25:00;13.60;99.90
23116;DHT22;11727;52.134;5.052;2023-08-07T01:27:35;13.60;99.90
23116;DHT22;11727;52.134;5.052;2023-08-07T01:30:22;13.60;99.90
23116;DHT22;11727;52.134;5.052;2023-08-07T01:35:24;13.50;99.90
23116;DHT22;11727;52.134;5.052;2023-08-07T01:37:54;13.50;99.90
23116;DHT22;11727;52.134;5.052;2023-08-07T01:40:21;13.40;99.90
23116;DHT22;11727;52.134;5.052;2023-08-07T01:42:47;13.50;99.90
23116;DHT22;11727;52.134;5.052;2023-08-07T01:45:13;13.50;99.90
23116;DHT22;11727;52.134;5.052;2023-08-07T01:47:39;13.40;99.90
23116;DHT22;11727;52.134;5.052;2023-08-07T01:50:05;13.40;99.90
23116;DHT22;11727;52.134;5.052;2023-08-07T01:52:31;13.40;99.90
23116;DHT22;11727;52.134;5.052;2023-08-07T01:54:56;13.40;99.90
23116;DHT22;11727;52.134;5.052;2023-08-07T01:57:22;13.40;99.90
23116;DHT22;11727;52.134;5.052;2023-08-07T01:59:47;13.50;99.90
23116;DHT22;11727;52.134;5.052;2023-08-07T02:02:13;13.50;99.90
23116;DHT22;11727;52.134;5.052;2023-08-07T02:04:39;13.50;99.90
23116;DHT22;11727;52.134;5.052;2023-08-07T02:07:04;13.50;99.90
23116;DHT22;11727;52.134;5.052;2023-08-07T02:09:30;13.60;99.90
23116;DHT22;11727;52.134;5.052;2023-08-07T02:11:55;13.50;99.90
23116;DHT22;11727;52.134;5.052;2023-08-07T02:14:21;13.60;99.90
23116;DHT22;11727;52.134;5.052;2023-08-07T02:16:46;13.60;99.90
23116;DHT22;11727;52.134;5.052;2023-08-07T02:19:12;13.60;99.90
23116;DHT22;11727;52.134;5.052;2023-08-07T02:21:38;13.70;99.90
23116;DHT22;11727;52.134;5.052;2023-08-07T02:24:03;13.70;99.90
23116;DHT22;11727;52.134;5.052;2023-08-07T02:26:29;13.70;99.90
23116;DHT22;11727;52.134;5.052;2023-08-07T02:28:54;13.70;99.90
23116;DHT22;11727;52.134;5.052;2023-08-07T02:31:20;13.70;99.90
23116;DHT22;11727;52.134;5.052;2023-08-07T02:33:46;13.80;99.90
23116;DHT22;11727;52.134;5.052;2023-08-07T02:36:11;13.70;99.90
23116;DHT22;11727;52.134;5.052;2023-08-07T02:38:37;13.70;99.90
23116;DHT22;11727;52.134;5.052;2023-08-07T02:41:03;13.70;99.90
23116;DHT22;11727;52.134;5.052;2023-08-07T02:43:29;13.80;99.90
23116;DHT22;11727;52.134;5.052;2023-08-07T02:45:54;13.80;99.90
23116;DHT22;11727;52.134;5.052;2023-08-07T02:48:20;13.80;99.90
23116;DHT22;11727;52.134;5.052;2023-08-07T02:50:46;13.90;99.90
23116;DHT22;11727;52.134;5.052;2023-08-07T02:53:12;13.80;99.90
23116;DHT22;11727;52.134;5.052;2023-08-07T02:55:37;13.80;99.90
23116;DHT22;11727;52.134;5.052;2023-08-07T02:58:03;13.80;99.90
23116;DHT22;11727;52.134;5.052;2023-08-07T03:00:28;13.80;99.90
23116;DHT22;11727;52.134;5.052;2023-08-07T03:02:54;13.90;99.90
23116;DHT22;11727;52.134;5.052;2023-08-07T03:05:19;13.90;99.90
23116;DHT22;11727;52.134;5.052;2023-08-07T03:07:45;13.90;99.90
23116;DHT22;11727;52.134;5.052;2023-08-07T03:10:11;13.90;99.90
23116;DHT22;11727;52.134;5.052;2023-08-07T03:12:37;13.90;99.90
23116;DHT22;11727;52.134;5.052;2023-08-07T03:15:04;13.90;99.90
23116;DHT22;11727;52.134;5.052;2023-08-07T03:17:30;13.90;99.90
23116;DHT22;11727;52.134;5.052;2023-08-07T03:19:56;13.80;99.90
23116;DHT22;11727;52.134;5.052;2023-08-07T03:22:21;13.80;99.90
23116;DHT22;11727;52.134;5.052;2023-08-07T03:24:47;13.80;99.90
23116;DHT22;11727;52.134;5.052;2023-08-07T03:27:13;13.70;99.90
23116;DHT22;11727;52.134;5.052;2023-08-07T03:29:39;13.70;99.90
23116;DHT22;11727;52.134;5.052;2023-08-07T03:32:05;13.70;99.90
23116;DHT22;11727;52.134;5.052;2023-08-07T03:34:30;13.70;99.90
23116;DHT22;11727;52.134;5.052;2023-08-07T03:36:56;13.60;99.90
23116;DHT22;11727;52.134;5.052;2023-08-07T03:39:21;13.70;99.90
23116;DHT22;11727;52.134;5.052;2023-08-07T03:41:48;13.60;99.90
23116;DHT22;11727;52.134;5.052;2023-08-07T03:44:14;13.60;99.90
23116;DHT22;11727;52.134;5.052;2023-08-07T03:46:40;13.60;99.90
23116;DHT22;11727;52.134;5.052;2023-08-07T03:49:05;13.60;99.90
23116;DHT22;11727;52.134;5.052;2023-08-07T03:51:31;13.60;99.90
23116;DHT22;11727;52.134;5.052;2023-08-07T03:53:57;13.60;99.90
23116;DHT22;11727;52.134;5.052;2023-08-07T03:56:23;13.60;99.90
23116;DHT22;11727;52.134;5.052;2023-08-07T03:58:49;13.60;99.90
23116;DHT22;11727;52.134;5.052;2023-08-07T04:01:16;13.60;99.90
23116;DHT22;11727;52.134;5.052;2023-08-07T04:03:42;13.60;99.90
23116;DHT22;11727;52.134;5.052;2023-08-07T04:06:07;13.60;99.90
23116;DHT22;11727;52.134;5.052;2023-08-07T04:08:33;13.60;99.90
23116;DHT22;11727;52.134;5.052;2023-08-07T04:11:03;13.60;99.90
23116;DHT22;11727;52.134;5.052;2023-08-07T04:13:29;13.50;99.90
23116;DHT22;11727;52.134;5.052;2023-08-07T04:15:55;13.50;99.90
23116;DHT22;11727;52.134;5.052;2023-08-07T04:18:21;13.50;99.90
23116;DHT22;11727;52.134;5.052;2023-08-07T04:20:54;13.50;99.90
23116;DHT22;11727;52.134;5.052;2023-08-07T04:23:21;13.40;99.90
23116;DHT22;11727;52.134;5.052;2023-08-07T04:25:50;13.50;99.90
23116;DHT22;11727;52.134;5.052;2023-08-07T04:28:16;13.50;99.90
23116;DHT22;11727;52.134;5.052;2023-08-07T04:30:43;13.50;99.90
23116;DHT22;11727;52.134;5.052;2023-08-07T04:33:09;13.40;99.90
23116;DHT22;11727;52.134;5.052;2023-08-07T04:35:35;13.50;99.90
23116;DHT22;11727;52.134;5.052;2023-08-07T04:38:01;13.50;99.90
23116;DHT22;11727;52.134;5.052;2023-08-07T04:40:28;13.50;99.90
23116;DHT22;11727;52.134;5.052;2023-08-07T04:42:53;13.50;99.90
23116;DHT22;11727;52.134;5.052;2023-08-07T04:45:19;13.50;99.90
23116;DHT22;11727;52.134;5.052;2023-08-07T04:47:46;13.50;99.90
23116;DHT22;11727;52.134;5.052;2023-08-07T04:50:12;13.50;99.90
23116;DHT22;11727;52.134;5.052;2023-08-07T04:52:37;13.50;99.90
23116;DHT22;11727;52.134;5.052;2023-08-07T04:55:04;13.50;99.90
23116;DHT22;11727;52.134;5.052;2023-08-07T04:57:30;13.60;99.90
23116;DHT22;11727;52.134;5.052;2023-08-07T04:59:58;13.60;99.90
23116;DHT22;11727;52.134;5.052;2023-08-07T05:02:26;13.60;99.90
23116;DHT22;11727;52.134;5.052;2023-08-07T05:04:52;13.60;99.90
23116;DHT22;11727;52.134;5.052;2023-08-07T05:07:17;13.60;99.90
23116;DHT22;11727;52.134;5.052;2023-08-07T05:09:43;13.70;99.90
23116;DHT22;11727;52.134;5.052;2023-08-07T05:12:09;13.70;99.90
23116;DHT22;11727;52.134;5.052;2023-08-07T05:14:34;13.70;99.90
23116;DHT22;11727;52.134;5.052;2023-08-07T05:17:00;13.70;99.90
23116;DHT22;11727;52.134;5.052;2023-08-07T05:19:25;13.70;99.90
23116;DHT22;11727;52.134;5.052;2023-08-07T05:21:51;13.70;99.90
23116;DHT22;11727;52.134;5.052;2023-08-07T05:24:17;13.80;99.90
23116;DHT22;11727;52.134;5.052;2023-08-07T05:26:43;13.70;99.90
23116;DHT22;11727;52.134;5.052;2023-08-07T05:29:09;13.70;99.90
23116;DHT22;11727;52.134;5.052;2023-08-07T05:31:34;13.80;99.90
23116;DHT22;11727;52.134;5.052;2023-08-07T05:34:00;13.80;99.90
23116;DHT22;11727;52.134;5.052;2023-08-07T05:36:26;13.80;99.90
23116;DHT22;11727;52.134;5.052;2023-08-07T05:38:52;13.80;99.90
23116;DHT22;11727;52.134;5.052;2023-08-07T05:41:17;13.80;99.90
23116;DHT22;11727;52.134;5.052;2023-08-07T05:43:43;13.80;99.90
23116;DHT22;11727;52.134;5.052;2023-08-07T05:46:09;13.80;99.90
23116;DHT22;11727;52.134;5.052;2023-08-07T05:48:35;13.80;99.90
23116;DHT22;11727;52.134;5.052;2023-08-07T05:51:01;13.80;99.90
23116;DHT22;11727;52.134;5.052;2023-08-07T05:53:26;13.80;99.90
23116;DHT22;11727;52.134;5.052;2023-08-07T05:55:52;13.80;99.90
23116;DHT22;11727;52.134;5.052;2023-08-07T05:58:17;13.80;99.90
23116;DHT22;11727;52.134;5.052;2023-08-07T06:00:44;13.80;99.90
23116;DHT22;11727;52.134;5.052;2023-08-07T06:03:10;13.80;99.90
23116;DHT22;11727;52.134;5.052;2023-08-07T06:05:35;13.80;99.90
23116;DHT22;11727;52.134;5.052;2023-08-07T06:08:01;13.80;99.90
23116;DHT22;11727;52.134;5.052;2023-08-07T06:10:27;13.70;99.90
23116;DHT22;11727;52.134;5.052;2023-08-07T06:12:53;13.80;99.90
23116;DHT22;11727;52.134;5.052;2023-08-07T06:15:19;13.70;99.90
23116;DHT22;11727;52.134;5.052;2023-08-07T06:17:45;13.70;99.90
23116;DHT22;11727;52.134;5.052;2023-08-07T06:20:11;13.80;99.90
23116;DHT22;11727;52.134;5.052;2023-08-07T06:22:40;13.80;99.90
23116;DHT22;11727;52.134;5.052;2023-08-07T06:25:06;13.80;99.90
23116;DHT22;11727;52.134;5.052;2023-08-07T06:27:32;13.90;99.90
23116;DHT22;11727;52.134;5.052;2023-08-07T06:29:58;13.90;99.90
23116;DHT22;11727;52.134;5.052;2023-08-07T06:32:25;14.00;99.90
23116;DHT22;11727;52.134;5.052;2023-08-07T06:34:50;14.10;99.90
23116;DHT22;11727;52.134;5.052;2023-08-07T06:37:16;14.20;99.90
23116;DHT22;11727;52.134;5.052;2023-08-07T06:39:42;14.30;99.90
23116;DHT22;11727;52.134;5.052;2023-08-07T06:42:07;14.40;99.90
23116;DHT22;11727;52.134;5.052;2023-08-07T06:44:33;14.40;99.90
23116;DHT22;11727;52.134;5.052;2023-08-07T06:46:59;14.50;99.90
23116;DHT22;11727;52.134;5.052;2023-08-07T06:49:24;14.50;99.90
23116;DHT22;11727;52.134;5.052;2023-08-07T06:51:50;14.40;99.90
23116;DHT22;11727;52.134;5.052;2023-08-07T06:54:16;14.40;99.90
23116;DHT22;11727;52.134;5.052;2023-08-07T06:56:41;14.40;99.90
23116;DHT22;11727;52.134;5.052;2023-08-07T06:59:08;14.40;99.90
23116;DHT22;11727;52.134;5.052;2023-08-07T07:01:34;14.40;99.90
23116;DHT22;11727;52.134;5.052;2023-08-07T07:03:59;14.30;99.90
23116;DHT22;11727;52.134;5.052;2023-08-07T07:06:25;14.30;99.90
23116;DHT22;11727;52.134;5.052;2023-08-07T07:08:53;14.30;99.90
23116;DHT22;11727;52.134;5.052;2023-08-07T07:11:20;14.30;99.90
23116;DHT22;11727;52.134;5.052;2023-08-07T07:13:47;14.30;99.90
23116;DHT22;11727;52.134;5.052;2023-08-07T07:16:13;14.30;99.90
23116;DHT22;11727;52.134;5.052;2023-08-07T07:18:39;14.20;99.90
23116;DHT22;11727;52.134;5.052;2023-08-07T07:21:05;14.30;99.90
23116;DHT22;11727;52.134;5.052;2023-08-07T07:23:30;14.20;99.90
23116;DHT22;11727;52.134;5.052;2023-08-07T07:25:56;14.30;99.90
23116;DHT22;11727;52.134;5.052;2023-08-07T07:28:23;14.40;99.90
23116;DHT22;11727;52.134;5.052;2023-08-07T07:30:52;14.50;99.90
23116;DHT22;11727;52.134;5.052;2023-08-07T07:33:17;14.50;99.90
23116;DHT22;11727;52.134;5.052;2023-08-07T07:35:43;14.60;99.90
23116;DHT22;11727;52.134;5.052;2023-08-07T07:38:09;14.60;99.90
23116;DHT22;11727;52.134;5.052;2023-08-07T07:40:36;14.60;99.90
23116;DHT22;11727;52.134;5.052;2023-08-07T07:43:02;14.60;99.90
23116;DHT22;11727;52.134;5.052;2023-08-07T07:45:28;14.70;99.90
23116;DHT22;11727;52.134;5.052;2023-08-07T07:47:53;14.80;99.90
23116;DHT22;11727;52.134;5.052;2023-08-07T07:50:19;14.80;99.90
23116;DHT22;11727;52.134;5.052;2023-08-07T07:52:44;14.80;99.90
23116;DHT22;11727;52.134;5.052;2023-08-07T07:55:10;14.90;99.90
23116;DHT22;11727;52.134;5.052;2023-08-07T07:57:37;14.90;99.90
23116;DHT22;11727;52.134;5.052;2023-08-07T08:00:03;15.00;99.90
23116;DHT22;11727;52.134;5.052;2023-08-07T08:02:33;15.10;99.90
23116;DHT22;11727;52.134;5.052;2023-08-07T08:04:58;15.10;99.90
23116;DHT22;11727;52.134;5.052;2023-08-07T08:07:24;15.20;99.90
23116;DHT22;11727;52.134;5.052;2023-08-07T08:09:50;15.20;99.90
23116;DHT22;11727;52.134;5.052;2023-08-07T08:12:16;15.20;99.90
23116;DHT22;11727;52.134;5.052;2023-08-07T08:14:41;15.20;99.90
23116;DHT22;11727;52.134;5.052;2023-08-07T08:17:07;15.20;99.90
23116;DHT22;11727;52.134;5.052;2023-08-07T08:19:33;15.20;99.90
23116;DHT22;11727;52.134;5.052;2023-08-07T08:21:59;15.20;99.90
23116;DHT22;11727;52.134;5.052;2023-08-07T08:24:24;15.20;99.90
23116;DHT22;11727;52.134;5.052;2023-08-07T08:26:50;15.30;99.90
23116;DHT22;11727;52.134;5.052;2023-08-07T08:29:15;15.30;99.90
23116;DHT22;11727;52.134;5.052;2023-08-07T08:31:41;15.40;99.90
23116;DHT22;11727;52.134;5.052;2023-08-07T08:34:07;15.40;99.90
23116;DHT22;11727;52.134;5.052;2023-08-07T08:36:32;15.40;99.90
23116;DHT22;11727;52.134;5.052;2023-08-07T08:38:58;15.40;99.90
23116;DHT22;11727;52.134;5.052;2023-08-07T08:41:24;15.40;99.90
23116;DHT22;11727;52.134;5.052;2023-08-07T08:43:52;15.30;99.90
23116;DHT22;11727;52.134;5.052;2023-08-07T08:46:20;15.30;99.90
23116;DHT22;11727;52.134;5.052;2023-08-07T08:48:50;15.30;99.90
23116;DHT22;11727;52.134;5.052;2023-08-07T08:51:16;15.20;99.90
23116;DHT22;11727;52.134;5.052;2023-08-07T08:53:44;15.20;99.90
23116;DHT22;11727;52.134;5.052;2023-08-07T08:56:10;15.20;99.90
23116;DHT22;11727;52.134;5.052;2023-08-07T08:58:36;15.30;99.90
23116;DHT22;11727;52.134;5.052;2023-08-07T09:01:04;15.30;99.90
23116;DHT22;11727;52.134;5.052;2023-08-07T09:03:30;15.20;99.90
23116;DHT22;11727;52.134;5.052;2023-08-07T09:05:57;15.20;99.90
23116;DHT22;11727;52.134;5.052;2023-08-07T09:08:26;15.10;99.90
23116;DHT22;11727;52.134;5.052;2023-08-07T09:10:52;15.20;99.90
23116;DHT22;11727;52.134;5.052;2023-08-07T09:13:21;15.20;99.90
23116;DHT22;11727;52.134;5.052;2023-08-07T09:15:50;15.20;99.90
23116;DHT22;11727;52.134;5.052;2023-08-07T09:18:17;15.10;99.90
23116;DHT22;11727;52.134;5.052;2023-08-07T09:20:42;15.10;99.90
23116;DHT22;11727;52.134;5.052;2023-08-07T09:23:08;15.10;99.90
23116;DHT22;11727;52.134;5.052;2023-08-07T09:25:35;15.00;99.90
23116;DHT22;11727;52.134;5.052;2023-08-07T09:28:05;15.10;99.90
23116;DHT22;11727;52.134;5.052;2023-08-07T09:30:32;15.20;99.90
23116;DHT22;11727;52.134;5.052;2023-08-07T09:32:58;15.40;99.90
23116;DHT22;11727;52.134;5.052;2023-08-07T09:35:24;15.60;99.90
23116;DHT22;11727;52.134;5.052;2023-08-07T09:37:51;15.70;99.90
23116;DHT22;11727;52.134;5.052;2023-08-07T09:40:17;15.80;99.90
23116;DHT22;11727;52.134;5.052;2023-08-07T09:42:50;15.90;99.90
23116;DHT22;11727;52.134;5.052;2023-08-07T09:45:22;15.90;99.90
23116;DHT22;11727;52.134;5.052;2023-08-07T09:48:00;15.80;99.90
23116;DHT22;11727;52.134;5.052;2023-08-07T09:50:26;15.70;99.90
23116;DHT22;11727;52.134;5.052;2023-08-07T09:52:52;15.70;99.90
23116;DHT22;11727;52.134;5.052;2023-08-07T09:55:18;15.60;99.90
23116;DHT22;11727;52.134;5.052;2023-08-07T09:57:44;15.50;99.90
23116;DHT22;11727;52.134;5.052;2023-08-07T10:00:12;15.40;99.90
23116;DHT22;11727;52.134;5.052;2023-08-07T10:02:39;15.40;99.90
23116;DHT22;11727;52.134;5.052;2023-08-07T10:05:06;15.40;99.90
23116;DHT22;11727;52.134;5.052;2023-08-07T10:07:34;15.30;99.90
23116;DHT22;11727;52.134;5.052;2023-08-07T10:10:01;15.40;99.90
23116;DHT22;11727;52.134;5.052;2023-08-07T10:12:27;15.40;99.90
23116;DHT22;11727;52.134;5.052;2023-08-07T10:14:54;15.40;99.90
23116;DHT22;11727;52.134;5.052;2023-08-07T10:17:21;15.50;99.90
23116;DHT22;11727;52.134;5.052;2023-08-07T10:19:48;15.60;99.90
23116;DHT22;11727;52.134;5.052;2023-08-07T10:22:15;15.70;99.90
23116;DHT22;11727;52.134;5.052;2023-08-07T10:24:43;15.70;99.90
23116;DHT22;11727;52.134;5.052;2023-08-07T10:27:11;15.80;99.90
23116;DHT22;11727;52.134;5.052;2023-08-07T10:29:39;15.80;99.90
23116;DHT22;11727;52.134;5.052;2023-08-07T10:32:07;15.80;99.90
23116;DHT22;11727;52.134;5.052;2023-08-07T10:34:33;15.80;99.90
23116;DHT22;11727;52.134;5.052;2023-08-07T10:36:59;15.80;99.90
23116;DHT22;11727;52.134;5.052;2023-08-07T10:39:24;15.70;99.90
23116;DHT22;11727;52.134;5.052;2023-08-07T10:41:53;15.80;99.90
23116;DHT22;11727;52.134;5.052;2023-08-07T10:44:22;15.80;99.90
23116;DHT22;11727;52.134;5.052;2023-08-07T10:46:48;15.80;99.90
23116;DHT22;11727;52.134;5.052;2023-08-07T10:51:57;15.80;99.90
23116;DHT22;11727;52.134;5.052;2023-08-07T10:54:24;15.80;99.90
23116;DHT22;11727;52.134;5.052;2023-08-07T10:56:54;15.90;99.90
23116;DHT22;11727;52.134;5.052;2023-08-07T10:59:20;15.90;99.90
23116;DHT22;11727;52.134;5.052;2023-08-07T11:01:51;15.80;99.90
23116;DHT22;11727;52.134;5.052;2023-08-07T11:04:17;15.80;99.90
23116;DHT22;11727;52.134;5.052;2023-08-07T11:06:47;15.80;99.90
23116;DHT22;11727;52.134;5.052;2023-08-07T11:09:13;15.80;99.90
23116;DHT22;11727;52.134;5.052;2023-08-07T11:11:41;15.80;99.90
23116;DHT22;11727;52.134;5.052;2023-08-07T11:14:08;15.90;99.90
23116;DHT22;11727;52.134;5.052;2023-08-07T11:16:36;16.00;99.90
23116;DHT22;11727;52.134;5.052;2023-08-07T11:19:03;16.00;99.90
23116;DHT22;11727;52.134;5.052;2023-08-07T11:21:31;16.00;99.90
23116;DHT22;11727;52.134;5.052;2023-08-07T11:23:57;16.00;99.90
23116;DHT22;11727;52.134;5.052;2023-08-07T11:26:22;16.10;99.90
23116;DHT22;11727;52.134;5.052;2023-08-07T11:28:50;16.10;99.90
23116;DHT22;11727;52.134;5.052;2023-08-07T11:31:17;16.10;99.90
23116;DHT22;11727;52.134;5.052;2023-08-07T11:33:43;16.40;99.90
23116;DHT22;11727;52.134;5.052;2023-08-07T11:36:12;16.60;99.90
23116;DHT22;11727;52.134;5.052;2023-08-07T11:38:43;16.60;99.90
23116;DHT22;11727;52.134;5.052;2023-08-07T11:41:12;16.60;99.90
23116;DHT22;11727;52.134;5.052;2023-08-07T11:43:39;16.70;99.90
23116;DHT22;11727;52.134;5.052;2023-08-07T11:46:07;16.80;99.90
23116;DHT22;11727;52.134;5.052;2023-08-07T11:48:35;17.00;99.90
23116;DHT22;11727;52.134;5.052;2023-08-07T11:51:03;17.20;99.90
23116;DHT22;11727;52.134;5.052;2023-08-07T11:53:31;17.20;99.90
23116;DHT22;11727;52.134;5.052;2023-08-07T11:56:04;17.20;99.90
23116;DHT22;11727;52.134;5.052;2023-08-07T11:58:38;17.10;99.90
23116;DHT22;11727;52.134;5.052;2023-08-07T12:01:15;16.90;99.90
23116;DHT22;11727;52.134;5.052;2023-08-07T12:06:21;16.80;99.90
23116;DHT22;11727;52.134;5.052;2023-08-07T12:08:49;16.70;99.90
23116;DHT22;11727;52.134;5.052;2023-08-07T12:11:18;16.70;99.90
23116;DHT22;11727;52.134;5.052;2023-08-07T12:13:46;16.80;99.90
23116;DHT22;11727;52.134;5.052;2023-08-07T12:16:13;16.80;99.90
23116;DHT22;11727;52.134;5.052;2023-08-07T12:18:46;16.80;99.90
23116;DHT22;11727;52.134;5.052;2023-08-07T12:21:15;16.80;99.90
23116;DHT22;11727;52.134;5.052;2023-08-07T12:23:41;16.90;99.90
23116;DHT22;11727;52.134;5.052;2023-08-07T12:26:07;17.00;99.90
23116;DHT22;11727;52.134;5.052;2023-08-07T12:28:36;17.10;99.90
23116;DHT22;11727;52.134;5.052;2023-08-07T12:31:02;17.10;99.90
23116;DHT22;11727;52.134;5.052;2023-08-07T12:33:29;17.20;99.90
23116;DHT22;11727;52.134;5.052;2023-08-07T12:35:55;17.30;99.90
23116;DHT22;11727;52.134;5.052;2023-08-07T12:38:21;17.20;99.90
23116;DHT22;11727;52.134;5.052;2023-08-07T12:40:47;17.20;99.90
23116;DHT22;11727;52.134;5.052;2023-08-07T12:43:13;17.20;99.90
23116;DHT22;11727;52.134;5.052;2023-08-07T12:45:38;17.10;99.90
23116;DHT22;11727;52.134;5.052;2023-08-07T12:48:04;17.10;99.90
23116;DHT22;11727;52.134;5.052;2023-08-07T12:50:30;17.10;99.90
23116;DHT22;11727;52.134;5.052;2023-08-07T12:52:56;17.30;99.90
23116;DHT22;11727;52.134;5.052;2023-08-07T12:55:22;17.40;99.90
23116;DHT22;11727;52.134;5.052;2023-08-07T12:57:48;17.50;99.90
23116;DHT22;11727;52.134;5.052;2023-08-07T13:00:15;17.50;99.90
23116;DHT22;11727;52.134;5.052;2023-08-07T13:02:42;17.60;99.90
23116;DHT22;11727;52.134;5.052;2023-08-07T13:05:08;17.60;99.90
23116;DHT22;11727;52.134;5.052;2023-08-07T13:07:35;17.70;99.90
23116;DHT22;11727;52.134;5.052;2023-08-07T13:10:01;17.90;99.90
23116;DHT22;11727;52.134;5.052;2023-08-07T13:12:26;18.00;99.90
23116;DHT22;11727;52.134;5.052;2023-08-07T13:14:52;18.20;99.90
23116;DHT22;11727;52.134;5.052;2023-08-07T13:17:17;18.30;99.90
23116;DHT22;11727;52.134;5.052;2023-08-07T13:19:43;18.40;99.90
23116;DHT22;11727;52.134;5.052;2023-08-07T13:22:09;18.40;99.90
23116;DHT22;11727;52.134;5.052;2023-08-07T13:24:34;18.40;99.90
23116;DHT22;11727;52.134;5.052;2023-08-07T13:27:01;18.50;99.90
23116;DHT22;11727;52.134;5.052;2023-08-07T13:29:26;18.50;99.90
23116;DHT22;11727;52.134;5.052;2023-08-07T13:31:55;18.60;99.90
23116;DHT22;11727;52.134;5.052;2023-08-07T13:34:20;18.60;99.90
23116;DHT22;11727;52.134;5.052;2023-08-07T13:36:47;18.60;99.90
23116;DHT22;11727;52.134;5.052;2023-08-07T13:39:13;18.60;99.90
23116;DHT22;11727;52.134;5.052;2023-08-07T13:41:39;18.60;99.90
23116;DHT22;11727;52.134;5.052;2023-08-07T13:44:04;18.50;99.90
23116;DHT22;11727;52.134;5.052;2023-08-07T13:46:30;18.50;99.90
23116;DHT22;11727;52.134;5.052;2023-08-07T13:48:56;18.40;99.90
23116;DHT22;11727;52.134;5.052;2023-08-07T13:51:21;18.30;99.90
23116;DHT22;11727;52.134;5.052;2023-08-07T13:53:47;18.10;99.90
23116;DHT22;11727;52.134;5.052;2023-08-07T13:56:12;18.10;99.90
23116;DHT22;11727;52.134;5.052;2023-08-07T13:58:39;18.10;99.90
23116;DHT22;11727;52.134;5.052;2023-08-07T14:01:05;18.20;99.90
23116;DHT22;11727;52.134;5.052;2023-08-07T14:03:31;18.30;99.90
23116;DHT22;11727;52.134;5.052;2023-08-07T14:05:56;18.40;99.90
23116;DHT22;11727;52.134;5.052;2023-08-07T14:08:22;18.40;99.90
23116;DHT22;11727;52.134;5.052;2023-08-07T14:10:48;18.50;99.90
23116;DHT22;11727;52.134;5.052;2023-08-07T14:13:13;18.60;99.90
23116;DHT22;11727;52.134;5.052;2023-08-07T14:15:39;18.70;99.90
23116;DHT22;11727;52.134;5.052;2023-08-07T14:18:05;18.70;99.90
23116;DHT22;11727;52.134;5.052;2023-08-07T14:20:31;18.60;99.90
23116;DHT22;11727;52.134;5.052;2023-08-07T14:22:57;18.40;99.90
23116;DHT22;11727;52.134;5.052;2023-08-07T14:25:22;18.30;99.90
23116;DHT22;11727;52.134;5.052;2023-08-07T14:27:48;18.30;99.90
23116;DHT22;11727;52.134;5.052;2023-08-07T14:30:14;18.30;99.90
23116;DHT22;11727;52.134;5.052;2023-08-07T14:32:40;18.30;99.90
23116;DHT22;11727;52.134;5.052;2023-08-07T14:35:08;18.40;99.90
23116;DHT22;11727;52.134;5.052;2023-08-07T14:37:33;18.40;99.90
23116;DHT22;11727;52.134;5.052;2023-08-07T14:39:59;18.50;99.90
23116;DHT22;11727;52.134;5.052;2023-08-07T14:42:25;18.60;99.90
23116;DHT22;11727;52.134;5.052;2023-08-07T14:44:51;18.60;99.90
23116;DHT22;11727;52.134;5.052;2023-08-07T14:47:17;18.60;99.90
23116;DHT22;11727;52.134;5.052;2023-08-07T14:49:42;18.50;99.90
23116;DHT22;11727;52.134;5.052;2023-08-07T14:52:08;18.50;99.90
23116;DHT22;11727;52.134;5.052;2023-08-07T14:54:34;18.40;99.90
23116;DHT22;11727;52.134;5.052;2023-08-07T14:56:59;18.30;99.90
23116;DHT22;11727;52.134;5.052;2023-08-07T14:59:25;18.20;99.90
23116;DHT22;11727;52.134;5.052;2023-08-07T15:01:51;18.10;99.90
23116;DHT22;11727;52.134;5.052;2023-08-07T15:04:17;18.20;99.90
23116;DHT22;11727;52.134;5.052;2023-08-07T15:06:42;18.30;99.90
23116;DHT22;11727;52.134;5.052;2023-08-07T15:09:12;18.30;99.90
23116;DHT22;11727;52.134;5.052;2023-08-07T15:11:37;18.40;99.90
23116;DHT22;11727;52.134;5.052;2023-08-07T15:14:03;18.50;99.90
23116;DHT22;11727;52.134;5.052;2023-08-07T15:16:30;18.60;99.90
23116;DHT22;11727;52.134;5.052;2023-08-07T15:18:56;18.60;99.90
23116;DHT22;11727;52.134;5.052;2023-08-07T15:21:21;18.40;99.90
23116;DHT22;11727;52.134;5.052;2023-08-07T15:23:47;18.30;99.90
23116;DHT22;11727;52.134;5.052;2023-08-07T15:26:12;18.20;99.90
23116;DHT22;11727;52.134;5.052;2023-08-07T15:28:38;18.00;99.90
23116;DHT22;11727;52.134;5.052;2023-08-07T15:31:04;17.90;99.90
23116;DHT22;11727;52.134;5.052;2023-08-07T15:33:30;17.90;99.90